Terminal Aerodrome Forecast
Issued by NWS

Home | Current Version | Previous Version | Graphics & Text | Print | Product List | Glossary On
Versions: 1 2 3 4 5 6 7 8 9 10 11 12 13 14 15 16 17 18 19 20 21 22
000
FTUS43 KICT 190908 AAB
TAFSLN
TAF AMD
KSLN 190908Z 1909/2006 20017G25KT P6SM SCT015 WS020/19050KT
      TEMPO 1909/1911 BKN015
     FM191100 28017G22KT P6SM OVC013
     FM191400 34017G22KT P6SM OVC017
     FM191700 33013KT P6SM SCT020 BKN100
     FM192000 34009KT P6SM OVC100=

USA.gov is the U.S. government's official web portal to all federal, state and local government web resources and services.